createdAt,value
2019-01-03T00:00:32.554Z,0
2019-01-03T00:01:24.585Z,0
2019-01-03T00:02:17.164Z,0
2019-01-03T00:03:08.956Z,0
2019-01-03T00:04:01.158Z,0
2019-01-03T00:04:53.333Z,0
2019-01-03T00:05:45.579Z,0
2019-01-03T00:06:37.803Z,0
2019-01-03T00:07:29.981Z,0
2019-01-03T00:08:23.579Z,0
2019-01-03T00:09:15.522Z,0
2019-01-03T00:10:07.882Z,0
2019-01-03T00:11:00.166Z,0
2019-01-03T00:11:52.471Z,0
2019-01-03T00:12:44.957Z,0
2019-01-03T00:13:36.927Z,0
2019-01-03T00:14:28.607Z,0
2019-01-03T00:15:20.545Z,0
2019-01-03T00:16:12.546Z,0
2019-01-03T00:17:04.613Z,0
2019-01-03T00:17:56.255Z,0
2019-01-03T00:18:48.416Z,0
2019-01-03T00:19:40.939Z,0
2019-01-03T00:20:28.869Z,0
2019-01-03T00:21:09.131Z,0
2019-01-03T00:21:49.707Z,0
2019-01-03T00:22:29.834Z,0
2019-01-03T00:23:10.355Z,0
2019-01-03T00:23:50.743Z,0
2019-01-03T00:24:31.210Z,0
2019-01-03T00:25:11.645Z,0
2019-01-03T00:25:52.028Z,0
2019-01-03T00:26:32.488Z,0
2019-01-03T00:27:12.864Z,0
2019-01-03T00:27:53.341Z,0
2019-01-03T00:28:35.945Z,0
2019-01-03T00:29:14.075Z,0
2019-01-03T00:29:54.494Z,0
2019-01-03T00:30:34.889Z,0
2019-01-03T00:31:15.335Z,0
2019-01-03T00:31:55.698Z,0
2019-01-03T00:32:36.114Z,0
2019-01-03T00:33:16.506Z,0
2019-01-03T00:33:57.038Z,0
2019-01-03T00:34:37.403Z,0
2019-01-03T00:35:17.768Z,0
2019-01-03T00:35:58.281Z,0
2019-01-03T00:36:38.640Z,0
2019-01-03T00:37:19.133Z,0
2019-01-03T00:37:59.410Z,0
2019-01-03T00:38:39.906Z,0
2019-01-03T00:39:20.210Z,0
2019-01-03T00:40:00.668Z,0
2019-01-03T00:40:41.060Z,0
2019-01-03T00:41:21.480Z,0
2019-01-03T00:42:02.023Z,0
2019-01-03T00:42:42.456Z,0
2019-01-03T00:43:22.956Z,0
2019-01-03T00:44:03.300Z,0
2019-01-03T00:44:43.725Z,0
2019-01-03T00:45:24.165Z,0
2019-01-03T00:46:04.563Z,0
2019-01-03T00:46:44.919Z,0
2019-01-03T00:47:25.322Z,0
2019-01-03T00:48:05.893Z,0
2019-01-03T00:48:46.208Z,0
2019-01-03T00:49:26.676Z,0
2019-01-03T00:50:07.141Z,0
2019-01-03T00:50:47.521Z,0
2019-01-03T00:51:27.974Z,0
2019-01-03T00:52:08.374Z,0
2019-01-03T00:52:48.691Z,0
2019-01-03T00:53:29.105Z,0
2019-01-03T00:54:09.496Z,0
2019-01-03T00:54:49.849Z,0
2019-01-03T00:55:30.324Z,0
2019-01-03T00:56:10.810Z,0
2019-01-03T00:56:51.193Z,0
2019-01-03T00:57:31.634Z,0
2019-01-03T00:58:11.975Z,0
2019-01-03T00:58:52.383Z,0
2019-01-03T00:59:32.817Z,0
2019-01-03T01:00:13.225Z,0
2019-01-03T01:00:53.572Z,0
2019-01-03T01:01:33.966Z,0
2019-01-03T01:02:14.428Z,0
2019-01-03T01:02:54.774Z,0
2019-01-03T01:03:35.218Z,0
2019-01-03T01:04:15.661Z,0
2019-01-03T01:04:56.372Z,0
2019-01-03T01:05:36.809Z,0
2019-01-03T01:06:17.291Z,0
2019-01-03T01:06:57.762Z,0
2019-01-03T01:07:38.247Z,0
2019-01-03T01:08:18.695Z,0
2019-01-03T01:08:59.425Z,0
2019-01-03T01:09:39.923Z,0
2019-01-03T01:10:20.368Z,0
2019-01-03T01:11:00.772Z,0
2019-01-03T01:11:41.256Z,0
2019-01-03T01:12:21.639Z,0
2019-01-03T01:13:01.933Z,0
2019-01-03T01:13:42.362Z,0
2019-01-03T01:14:22.844Z,0
2019-01-03T01:15:03.251Z,0
2019-01-03T01:15:43.746Z,0
2019-01-03T01:16:24.146Z,0
2019-01-03T01:17:04.735Z,0
2019-01-03T01:17:44.961Z,0
2019-01-03T01:18:25.448Z,0
2019-01-03T01:19:05.862Z,0
2019-01-03T01:19:46.534Z,0
2019-01-03T01:20:27.171Z,0
2019-01-03T01:21:07.607Z,0
2019-01-03T01:21:48.016Z,0
2019-01-03T01:22:28.455Z,0
2019-01-03T01:23:09.009Z,0
2019-01-03T01:23:49.358Z,0
2019-01-03T01:24:29.775Z,0
2019-01-03T01:25:10.156Z,0
2019-01-03T01:25:50.677Z,0
2019-01-03T01:26:31.152Z,0
2019-01-03T01:27:11.735Z,0
2019-01-03T01:27:52.190Z,0
2019-01-03T01:28:32.568Z,0
2019-01-03T01:29:13.434Z,0
2019-01-03T01:29:54.032Z,0
2019-01-03T01:30:34.424Z,0
2019-01-03T01:31:14.810Z,0
2019-01-03T01:31:55.195Z,0
2019-01-03T01:32:35.581Z,0
2019-01-03T01:33:16.026Z,0
2019-01-03T01:33:56.391Z,0
2019-01-03T01:34:36.854Z,0
2019-01-03T01:35:17.361Z,0
2019-01-03T01:35:57.720Z,0
2019-01-03T01:36:38.079Z,0
2019-01-03T01:37:18.793Z,0
2019-01-03T01:37:59.054Z,0
2019-01-03T01:38:39.557Z,0
2019-01-03T01:39:19.992Z,0
2019-01-03T01:40:00.329Z,0
2019-01-03T01:40:40.703Z,0
2019-01-03T01:41:21.212Z,0
2019-01-03T01:42:01.471Z,0
2019-01-03T01:42:41.924Z,0
2019-01-03T01:43:22.363Z,0
2019-01-03T01:44:02.777Z,0
2019-01-03T01:44:43.125Z,0
2019-01-03T01:45:23.558Z,0
2019-01-03T01:46:04.199Z,0
2019-01-03T01:46:44.476Z,0
2019-01-03T01:47:25.017Z,0
2019-01-03T01:48:05.382Z,0
2019-01-03T01:48:46.071Z,0
2019-01-03T01:49:26.401Z,0
2019-01-03T01:50:06.824Z,0
2019-01-03T01:50:47.369Z,0
2019-01-03T01:51:27.765Z,0
2019-01-03T01:52:08.253Z,0
2019-01-03T01:52:48.560Z,0
2019-01-03T01:53:29.001Z,0
2019-01-03T01:54:09.394Z,0
2019-01-03T01:54:49.789Z,0
2019-01-03T01:55:30.211Z,0
2019-01-03T01:56:10.794Z,0
2019-01-03T01:56:51.145Z,0
2019-01-03T01:57:31.471Z,0
2019-01-03T01:58:11.942Z,0
2019-01-03T01:58:52.506Z,0
2019-01-03T01:59:32.789Z,0
2019-01-03T02:00:13.277Z,0
2019-01-03T02:00:53.814Z,0
2019-01-03T02:01:35.763Z,0
2019-01-03T02:02:16.815Z,0
2019-01-03T02:02:57.453Z,0
2019-01-03T02:03:38.017Z,0
2019-01-03T02:04:18.850Z,0
2019-01-03T02:04:59.723Z,0
2019-01-03T02:05:40.168Z,0
2019-01-03T02:06:20.836Z,0
2019-01-03T02:07:01.778Z,0
2019-01-03T02:07:42.254Z,0
2019-01-03T02:08:22.969Z,0
2019-01-03T02:09:03.550Z,0
2019-01-03T02:09:44.505Z,0
2019-01-03T02:10:25.114Z,0
2019-01-03T02:11:06.453Z,0
2019-01-03T02:11:47.474Z,0
2019-01-03T02:12:27.922Z,0
2019-01-03T02:13:08.662Z,0
2019-01-03T02:13:49.328Z,0
2019-01-03T02:14:29.599Z,0
2019-01-03T02:15:11.184Z,0
2019-01-03T02:15:51.698Z,0
2019-01-03T02:16:32.193Z,0
2019-01-03T02:17:12.629Z,0
2019-01-03T02:17:53.290Z,0
2019-01-03T02:18:33.691Z,0
2019-01-03T02:19:14.224Z,0
2019-01-03T02:19:54.628Z,0
2019-01-03T02:20:35.181Z,0
2019-01-03T02:21:15.673Z,0
2019-01-03T02:21:56.106Z,0
2019-01-03T02:22:36.552Z,0
2019-01-03T02:23:17.075Z,0
2019-01-03T02:23:57.480Z,0
2019-01-03T02:24:37.970Z,0
2019-01-03T02:25:18.271Z,0
2019-01-03T02:25:58.858Z,0
2019-01-03T02:26:39.264Z,0
2019-01-03T02:27:19.774Z,0
2019-01-03T02:28:00.314Z,0
2019-01-03T02:28:40.739Z,0
2019-01-03T02:29:21.188Z,0
2019-01-03T02:30:01.738Z,0
2019-01-03T02:30:42.154Z,0
2019-01-03T02:31:22.878Z,0
2019-01-03T02:32:03.259Z,0
2019-01-03T02:32:43.665Z,0
2019-01-03T02:33:24.433Z,0
2019-01-03T02:34:05.795Z,0
2019-01-03T02:34:46.958Z,0
2019-01-03T02:35:27.472Z,0
2019-01-03T02:36:08.219Z,0
2019-01-03T02:36:50.110Z,0
2019-01-03T02:37:30.438Z,0
2019-01-03T02:38:11.293Z,0
2019-01-03T02:38:53.412Z,0
2019-01-03T02:39:34.067Z,0
2019-01-03T02:40:15.356Z,0
2019-01-03T02:40:55.892Z,0
2019-01-03T02:41:36.331Z,0
2019-01-03T02:42:16.897Z,0
2019-01-03T02:42:57.404Z,0
2019-01-03T02:43:37.892Z,0
2019-01-03T02:44:18.308Z,0
2019-01-03T02:44:58.692Z,0
2019-01-03T02:45:39.098Z,0
2019-01-03T02:46:19.481Z,0
2019-01-03T02:46:59.923Z,0
2019-01-03T02:47:40.300Z,0
2019-01-03T02:48:20.936Z,0
2019-01-03T02:49:01.266Z,0
2019-01-03T02:49:41.883Z,0
2019-01-03T02:50:22.368Z,0
2019-01-03T02:51:02.875Z,0
2019-01-03T02:51:43.452Z,0
2019-01-03T02:52:23.824Z,0
2019-01-03T02:53:04.291Z,0
2019-01-03T02:53:44.679Z,0
2019-01-03T02:54:25.300Z,0
2019-01-03T02:55:05.760Z,0
2019-01-03T02:55:46.146Z,0
2019-01-03T02:56:26.630Z,0
2019-01-03T02:57:06.957Z,0
2019-01-03T02:57:47.511Z,0
2019-01-03T02:58:27.931Z,0
2019-01-03T02:59:08.294Z,0
2019-01-03T02:59:48.730Z,0
2019-01-03T03:00:29.294Z,0
2019-01-03T03:01:09.627Z,0
2019-01-03T03:01:50.117Z,0
2019-01-03T03:02:30.556Z,0
2019-01-03T03:03:10.953Z,0
2019-01-03T03:03:51.393Z,0
2019-01-03T03:04:31.773Z,0
2019-01-03T03:05:12.242Z,0
2019-01-03T03:05:52.665Z,0
2019-01-03T03:06:33.054Z,0
2019-01-03T03:07:13.545Z,0
2019-01-03T03:07:53.840Z,0
2019-01-03T03:08:34.284Z,0
2019-01-03T03:09:14.830Z,0
2019-01-03T03:09:55.210Z,0
2019-01-03T03:10:35.521Z,0
2019-01-03T03:11:15.857Z,0
2019-01-03T03:11:56.417Z,0
2019-01-03T03:12:36.744Z,0
2019-01-03T03:13:17.377Z,0
2019-01-03T03:13:57.667Z,0
2019-01-03T03:14:38.132Z,0
2019-01-03T03:15:18.570Z,0
2019-01-03T03:15:58.939Z,0
2019-01-03T03:16:39.311Z,0
2019-01-03T03:17:19.692Z,0
2019-01-03T03:18:00.160Z,0
2019-01-03T03:18:40.519Z,0
2019-01-03T03:19:20.914Z,0
2019-01-03T03:20:01.378Z,0
2019-01-03T03:20:41.772Z,0
2019-01-03T03:21:22.139Z,0
2019-01-03T03:22:02.527Z,0
2019-01-03T03:22:43.069Z,0
2019-01-03T03:23:23.488Z,0
2019-01-03T03:24:03.881Z,0
2019-01-03T03:24:44.286Z,0
2019-01-03T03:25:24.917Z,0
2019-01-03T03:26:05.073Z,0
2019-01-03T03:26:45.461Z,0
2019-01-03T03:27:25.798Z,0
2019-01-03T03:28:06.296Z,0
2019-01-03T03:28:46.767Z,0
2019-01-03T03:29:27.069Z,0
2019-01-03T03:30:07.581Z,0
2019-01-03T03:30:48.048Z,0
2019-01-03T03:31:28.472Z,0
2019-01-03T03:32:08.976Z,0
2019-01-03T03:32:49.289Z,0
2019-01-03T03:33:29.809Z,0
2019-01-03T03:34:10.182Z,0
2019-01-03T03:34:50.570Z,0
2019-01-03T03:35:30.899Z,0
2019-01-03T03:36:11.411Z,0
2019-01-03T03:36:51.767Z,0
2019-01-03T03:37:32.208Z,0
2019-01-03T03:38:12.518Z,0
2019-01-03T03:38:52.982Z,0
2019-01-03T03:39:33.317Z,0
2019-01-03T03:40:13.778Z,0
2019-01-03T03:40:54.153Z,0
2019-01-03T03:41:34.589Z,0
2019-01-03T03:42:15.014Z,0
2019-01-03T03:42:55.383Z,0
2019-01-03T03:43:35.778Z,0
2019-01-03T03:44:16.224Z,0
2019-01-03T03:44:56.676Z,0
2019-01-03T03:45:36.964Z,0
2019-01-03T03:46:17.444Z,0
2019-01-03T03:46:57.834Z,0
2019-01-03T03:47:38.097Z,0
2019-01-03T03:48:18.634Z,0
2019-01-03T03:48:58.989Z,0
2019-01-03T03:49:39.375Z,0
2019-01-03T03:50:19.861Z,0
2019-01-03T03:51:00.390Z,0
2019-01-03T03:51:40.732Z,0
2019-01-03T03:52:21.162Z,0
2019-01-03T03:53:01.526Z,0
2019-01-03T03:53:41.924Z,0
2019-01-03T03:54:22.343Z,0
2019-01-03T03:55:02.694Z,0
2019-01-03T03:55:43.052Z,0
2019-01-03T03:56:23.569Z,0
2019-01-03T03:57:03.914Z,0
2019-01-03T03:57:44.299Z,0
2019-01-03T03:58:24.771Z,0
2019-01-03T03:59:05.090Z,0
2019-01-03T03:59:45.419Z,0
2019-01-03T04:00:25.951Z,0
2019-01-03T04:01:06.450Z,0
2019-01-03T04:01:46.803Z,0
2019-01-03T04:02:27.159Z,0
2019-01-03T04:03:07.585Z,0
2019-01-03T04:03:47.953Z,0
2019-01-03T04:04:28.306Z,0
2019-01-03T04:05:08.804Z,0
2019-01-03T04:05:49.192Z,0
2019-01-03T04:06:29.563Z,0
2019-01-03T04:07:10.108Z,0
2019-01-03T04:07:50.514Z,0
2019-01-03T04:08:30.920Z,0
2019-01-03T04:09:11.271Z,0
2019-01-03T04:09:51.701Z,0
2019-01-03T04:10:32.110Z,0
2019-01-03T04:11:12.586Z,0
2019-01-03T04:11:52.910Z,0
2019-01-03T04:12:33.293Z,0
2019-01-03T04:13:13.770Z,0
2019-01-03T04:13:54.069Z,0
2019-01-03T04:14:34.497Z,0
2019-01-03T04:15:14.881Z,0
2019-01-03T04:15:55.291Z,0
2019-01-03T04:16:35.845Z,0
2019-01-03T04:17:16.136Z,0
2019-01-03T04:17:56.556Z,0
2019-01-03T04:18:36.905Z,0
2019-01-03T04:19:17.350Z,0
2019-01-03T04:19:57.789Z,0
2019-01-03T04:20:38.187Z,0
2019-01-03T04:21:18.512Z,0
2019-01-03T04:21:58.932Z,0
2019-01-03T04:22:39.393Z,0
2019-01-03T04:23:19.742Z,0
2019-01-03T04:24:00.161Z,0
2019-01-03T04:24:40.566Z,0
2019-01-03T04:25:20.833Z,0
2019-01-03T04:26:01.303Z,0
2019-01-03T04:26:41.726Z,0
2019-01-03T04:27:22.015Z,0
2019-01-03T05:06:39.522Z,0
2019-01-03T05:07:19.838Z,0
2019-01-03T05:08:00.265Z,0
2019-01-03T05:08:40.615Z,0
2019-01-03T05:09:21.030Z,0
2019-01-03T05:10:01.420Z,0
2019-01-03T05:10:41.829Z,0
2019-01-03T05:11:22.252Z,0
2019-01-03T05:12:02.675Z,0
2019-01-03T05:12:42.983Z,0
2019-01-03T05:13:23.374Z,0
2019-01-03T05:14:03.789Z,0
2019-01-03T05:14:44.184Z,0
2019-01-03T05:15:24.595Z,0
2019-01-03T05:16:04.968Z,0
2019-01-03T05:16:45.382Z,0
2019-01-03T05:17:25.760Z,0
2019-01-03T05:18:06.196Z,0
2019-01-03T05:18:46.573Z,0
2019-01-03T05:19:26.908Z,0
2019-01-03T05:20:07.301Z,0
2019-01-03T05:20:47.713Z,0
2019-01-03T05:21:28.129Z,0
2019-01-03T05:22:08.512Z,0
2019-01-03T05:22:48.921Z,0
2019-01-03T05:23:29.291Z,0
2019-01-03T05:24:09.714Z,0
2019-01-03T05:24:50.114Z,0
2019-01-03T05:25:30.547Z,0
2019-01-03T05:26:10.963Z,0
2019-01-03T05:26:51.340Z,0
2019-01-03T05:27:31.740Z,0
2019-01-03T05:28:12.145Z,0
2019-01-03T05:28:52.549Z,0
2019-01-03T05:29:32.980Z,0
2019-01-03T05:30:18.168Z,0
2019-01-03T05:30:53.711Z,0
2019-01-03T05:31:34.107Z,0
2019-01-03T05:32:14.521Z,0
2019-01-03T05:32:54.938Z,0
2019-01-03T05:33:35.326Z,0
2019-01-03T05:34:15.718Z,0
2019-01-03T05:34:56.107Z,0
2019-01-03T05:35:36.534Z,0
2019-01-03T05:36:16.904Z,0
2019-01-03T05:36:57.307Z,0
2019-01-03T05:37:37.708Z,0
2019-01-03T05:38:18.120Z,0
2019-01-03T05:38:58.502Z,0
2019-01-03T05:39:38.889Z,0
2019-01-03T05:40:19.274Z,0
2019-01-03T05:40:59.694Z,0
2019-01-03T05:41:40.068Z,0
2019-01-03T05:42:20.484Z,0
2019-01-03T05:43:00.891Z,0
2019-01-03T05:43:41.279Z,0
2019-01-03T05:44:21.686Z,0
2019-01-03T05:45:02.095Z,0
2019-01-03T05:45:42.475Z,0
2019-01-03T05:46:22.905Z,0
2019-01-03T05:47:03.234Z,0
2019-01-03T05:47:43.668Z,0
2019-01-03T05:48:24.119Z,0
2019-01-03T05:49:04.512Z,0
2019-01-03T05:49:44.899Z,0
2019-01-03T05:50:25.306Z,0
2019-01-03T05:51:05.752Z,0
2019-01-03T05:51:46.137Z,0
2019-01-03T05:52:26.518Z,0
2019-01-03T05:53:06.936Z,0
2019-01-03T05:53:47.295Z,0
2019-01-03T05:54:27.698Z,0
2019-01-03T05:55:08.084Z,0
2019-01-03T05:55:48.473Z,0
2019-01-03T05:56:28.890Z,0
2019-01-03T05:57:09.265Z,0
2019-01-03T05:57:49.671Z,0
2019-01-03T05:58:30.103Z,0
2019-01-03T06:04:18.900Z,0
2019-01-03T06:05:11.245Z,0
2019-01-03T06:06:03.589Z,0
2019-01-03T06:06:56.245Z,0
2019-01-03T06:07:49.002Z,0
2019-01-03T06:08:41.123Z,0
2019-01-03T06:09:34.784Z,0
2019-01-03T06:10:26.922Z,0
2019-01-03T06:11:19.020Z,0
2019-01-03T06:12:11.105Z,0
2019-01-03T06:13:03.066Z,0
2019-01-03T06:13:55.306Z,0
2019-01-03T06:14:47.554Z,0
2019-01-03T06:15:40.744Z,0
2019-01-03T06:16:33.205Z,0
2019-01-03T06:17:25.253Z,0
2019-01-03T06:18:17.557Z,0
2019-01-03T06:19:09.658Z,0
2019-01-03T06:20:02.757Z,0
2019-01-03T06:20:55.145Z,0
2019-01-03T06:21:47.364Z,0
2019-01-03T06:22:39.881Z,0
2019-01-03T06:23:32.108Z,0
2019-01-03T06:24:24.832Z,0
2019-01-03T06:25:17.063Z,0
2019-01-03T06:26:10.241Z,0
2019-01-03T06:27:02.888Z,0
2019-01-03T06:27:55.200Z,0
2019-01-03T06:28:47.569Z,0
2019-01-03T06:29:40.232Z,0
2019-01-03T06:30:32.791Z,0
2019-01-03T06:31:24.827Z,0
2019-01-03T06:32:18.216Z,0
2019-01-03T06:33:10.664Z,0
2019-01-03T06:34:02.688Z,0
2019-01-03T06:34:55.905Z,0
2019-01-03T06:35:48.546Z,0
2019-01-03T06:36:40.222Z,0
2019-01-03T06:37:32.902Z,0
2019-01-03T06:38:25.272Z,0
2019-01-03T06:39:18.217Z,0
2019-01-03T06:40:11.205Z,0
2019-01-03T06:41:03.971Z,0
2019-01-03T06:41:58.687Z,0
2019-01-03T06:42:53.537Z,0
2019-01-03T06:43:46.344Z,0
2019-01-03T06:44:41.614Z,0
2019-01-03T06:45:34.380Z,0
2019-01-03T06:46:27.778Z,0
2019-01-03T06:47:20.229Z,0
2019-01-03T06:48:12.672Z,0
2019-01-03T06:49:04.815Z,0
2019-01-03T06:50:04.013Z,0
2019-01-03T06:54:42.595Z,0
2019-01-03T06:55:35.976Z,0
2019-01-03T06:56:29.294Z,0
2019-01-03T06:57:25.141Z,0
2019-01-03T06:58:22.483Z,0
2019-01-03T06:59:17.539Z,0
2019-01-03T07:00:12.225Z,0
2019-01-03T07:01:12.895Z,0
2019-01-03T07:02:10.735Z,0
2019-01-03T07:06:07.468Z,0
2019-01-03T07:07:02.446Z,0
2019-01-03T07:08:00.341Z,0
2019-01-03T07:08:57.926Z,0
2019-01-03T07:09:51.958Z,0
2019-01-03T07:10:46.024Z,0
2019-01-03T07:11:39.973Z,0
2019-01-03T07:12:37.415Z,0
2019-01-03T07:13:33.844Z,4
2019-01-03T07:14:27.266Z,4
2019-01-03T07:15:20.502Z,0
2019-01-03T07:16:13.534Z,0
2019-01-03T07:17:08.684Z,0
2019-01-03T07:18:04.785Z,0
2019-01-03T07:19:03.211Z,4
2019-01-03T07:19:56.669Z,4
2019-01-03T07:20:52.243Z,4
2019-01-03T07:21:47.539Z,4
2019-01-03T07:22:42.287Z,4
2019-01-03T07:23:38.575Z,8
2019-01-03T07:24:35.409Z,4
2019-01-03T07:25:33.754Z,8
2019-01-03T07:26:26.847Z,4
2019-01-03T07:27:20.727Z,8
2019-01-03T07:28:19.752Z,8
2019-01-03T07:29:18.692Z,8
2019-01-03T07:30:21.420Z,8
2019-01-03T07:36:38.850Z,12
2019-01-03T07:37:20.276Z,12
2019-01-03T07:38:00.771Z,12
2019-01-03T07:38:41.137Z,12
2019-01-03T07:39:22.514Z,16
2019-01-03T07:40:04.841Z,16
2019-01-03T07:40:45.301Z,24
2019-01-03T07:41:25.667Z,24
2019-01-03T07:42:06.510Z,24
2019-01-03T07:42:51.438Z,20
2019-01-03T07:43:32.463Z,24
2019-01-03T07:44:13.994Z,24
2019-01-03T07:44:54.740Z,24
2019-01-03T07:45:35.539Z,20
2019-01-03T07:46:19.049Z,20
2019-01-03T07:47:00.061Z,24
2019-01-03T07:47:40.643Z,32
2019-01-03T07:48:21.202Z,44
2019-01-03T07:49:02.193Z,52
2019-01-03T07:49:47.106Z,84
2019-01-03T07:50:27.536Z,104
2019-01-03T07:51:08.792Z,112
2019-01-03T07:51:48.616Z,120
2019-01-03T07:52:29.106Z,120
2019-01-03T07:53:10.643Z,124
2019-01-03T07:53:50.806Z,116
2019-01-03T07:54:32.295Z,116
2019-01-03T07:55:12.763Z,116
2019-01-03T07:55:53.304Z,108
2019-01-03T07:56:33.871Z,116
2019-01-03T07:57:14.662Z,104
2019-01-03T07:57:55.310Z,88
2019-01-03T07:58:36.800Z,76
2019-01-03T07:59:16.686Z,64
2019-01-03T07:59:58.979Z,64
2019-01-03T08:00:42.633Z,72
2019-01-03T08:01:23.814Z,72
2019-01-03T08:02:03.788Z,72
2019-01-03T08:02:44.691Z,76
2019-01-03T08:03:25.373Z,76
2019-01-03T08:04:05.786Z,76
2019-01-03T08:04:46.548Z,88
2019-01-03T08:05:27.601Z,96
2019-01-03T08:06:07.943Z,100
2019-01-03T08:06:48.882Z,88
2019-01-03T08:07:29.801Z,80
2019-01-03T08:08:09.997Z,88
2019-01-03T08:08:50.875Z,92
2019-01-03T08:09:31.386Z,92
2019-01-03T08:10:11.945Z,92
2019-01-03T08:10:52.432Z,96
2019-01-03T08:11:32.920Z,96
2019-01-03T08:12:19.847Z,104
2019-01-03T08:13:00.268Z,104
2019-01-03T08:13:42.758Z,104
2019-01-03T08:14:23.173Z,116
2019-01-03T08:15:04.607Z,136
2019-01-03T08:15:44.981Z,148
2019-01-03T08:16:25.403Z,152
2019-01-03T08:17:05.793Z,156
2019-01-03T08:17:46.197Z,164
2019-01-03T08:18:28.413Z,172
2019-01-03T08:19:08.728Z,172
2019-01-03T08:19:49.129Z,172
2019-01-03T08:20:29.592Z,160
2019-01-03T08:21:10.084Z,148
2019-01-03T08:21:51.537Z,136
2019-01-03T08:22:31.955Z,140
2019-01-03T08:25:10.157Z,156
2019-01-03T08:26:17.360Z,160
2019-01-03T08:28:06.897Z,176
2019-01-03T08:29:08.873Z,164
2019-01-03T08:30:01.834Z,168
2019-01-03T08:30:55.840Z,172
2019-01-03T08:31:49.394Z,180
2019-01-03T08:32:44.224Z,200
2019-01-03T08:33:37.210Z,212
2019-01-03T08:34:32.957Z,216
2019-01-03T08:35:27.957Z,204
2019-01-03T08:38:08.803Z,176
2019-01-03T08:39:04.697Z,180
2019-01-03T08:40:03.654Z,168
2019-01-03T08:40:56.645Z,152
2019-01-03T08:41:53.810Z,160
2019-01-03T08:42:52.292Z,180
2019-01-03T08:43:47.268Z,188
2019-01-03T08:44:42.250Z,144
2019-01-03T08:45:39.178Z,184
2019-01-03T08:46:35.621Z,252
2019-01-03T08:47:27.962Z,288
2019-01-03T08:48:23.743Z,300
2019-01-03T08:49:16.748Z,292
2019-01-03T08:50:11.040Z,280
2019-01-03T08:51:09.240Z,268
2019-01-03T08:52:09.383Z,260
2019-01-03T08:53:02.244Z,264
2019-01-03T08:53:59.024Z,276
2019-01-03T08:54:53.568Z,272
2019-01-03T08:55:51.132Z,280
2019-01-03T08:56:48.007Z,292
2019-01-03T08:57:47.347Z,304
2019-01-03T08:58:42.698Z,372
2019-01-03T08:59:39.560Z,404
2019-01-03T09:01:01.287Z,400
2019-01-03T09:07:13.318Z,440
2019-01-03T09:20:39.796Z,376
2019-01-03T09:25:10.186Z,536
2019-01-03T09:25:50.087Z,576
2019-01-03T09:26:30.462Z,608
2019-01-03T09:27:12.681Z,588
2019-01-03T09:27:53.082Z,584
2019-01-03T09:28:34.534Z,580
2019-01-03T09:29:14.930Z,568
2019-01-03T09:29:55.394Z,552
2019-01-03T09:30:35.751Z,528
2019-01-03T09:31:16.185Z,532
2019-01-03T09:31:56.931Z,532
2019-01-03T09:32:37.313Z,516
2019-01-03T09:33:17.821Z,512
2019-01-03T09:33:58.223Z,580
2019-01-03T09:34:56.296Z,652
2019-01-03T09:35:36.642Z,640
2019-01-03T09:36:17.376Z,640
2019-01-03T09:36:57.774Z,660
2019-01-03T09:37:40.346Z,696
2019-01-03T09:38:22.048Z,716
2019-01-03T09:39:02.407Z,708
2019-01-03T09:39:42.838Z,708
2019-01-03T09:40:23.219Z,708
2019-01-03T09:41:03.663Z,708
2019-01-03T09:41:44.135Z,732
2019-01-03T09:42:24.473Z,768
2019-01-03T09:43:04.878Z,792
2019-01-03T09:43:45.299Z,800
2019-01-03T09:44:27.765Z,764
2019-01-03T09:45:08.210Z,732
2019-01-03T09:49:22.062Z,816
2019-01-03T09:50:24.607Z,856
2019-01-03T09:52:24.483Z,820
2019-01-03T09:53:04.512Z,828
2019-01-03T09:53:46.732Z,796
2019-01-03T09:54:27.391Z,760
2019-01-03T09:55:07.839Z,720
2019-01-03T09:55:48.334Z,680
2019-01-03T09:56:28.869Z,656
2019-01-03T09:57:09.225Z,652
2019-01-03T09:57:49.936Z,632
2019-01-03T09:58:30.340Z,644
2019-01-03T09:59:12.577Z,684
2019-01-03T09:59:53.058Z,732
2019-01-03T10:00:33.442Z,692
2019-01-03T10:01:13.895Z,648
2019-01-03T10:01:54.265Z,616
2019-01-03T10:02:34.757Z,584
2019-01-03T10:03:15.107Z,576
2019-01-03T10:03:55.610Z,604
2019-01-03T10:04:37.705Z,656
2019-01-03T10:05:18.129Z,700
2019-01-03T10:07:51.614Z,616
2019-01-03T10:09:05.970Z,640
2019-01-03T10:10:09.791Z,676
2019-01-03T10:11:08.894Z,656
2019-01-03T10:12:06.887Z,676
2019-01-03T10:13:09.769Z,840
2019-01-03T10:14:11.692Z,788
2019-01-03T10:15:33.004Z,736
2019-01-03T10:16:36.729Z,696
2019-01-03T10:22:27.297Z,780
2019-01-03T10:25:40.610Z,632
2019-01-03T10:26:51.696Z,480
2019-01-03T10:27:53.336Z,432
2019-01-03T11:19:26.559Z,720
2019-01-03T11:20:06.625Z,652
2019-01-03T11:20:47.042Z,620
2019-01-03T11:21:27.431Z,640
2019-01-03T11:22:07.877Z,672
2019-01-03T11:22:48.397Z,688
2019-01-03T11:23:28.805Z,668
2019-01-03T11:24:09.284Z,652
2019-01-03T11:24:49.614Z,660
2019-01-03T11:25:30.026Z,680
2019-01-03T11:26:10.395Z,692
2019-01-03T11:26:51.077Z,696
2019-01-03T11:27:33.256Z,680
2019-01-03T11:28:14.629Z,676
2019-01-03T11:28:55.936Z,656
2019-01-03T11:29:36.410Z,620
2019-01-03T11:30:16.914Z,600
2019-01-03T11:30:57.422Z,588
2019-01-03T11:31:37.860Z,600
2019-01-03T11:32:18.192Z,608
2019-01-03T11:33:00.372Z,552
2019-01-03T11:33:40.945Z,532
2019-01-03T11:34:21.434Z,536
2019-01-03T11:35:03.753Z,552
2019-01-03T11:35:44.360Z,560
2019-01-03T11:36:24.524Z,588
2019-01-03T11:37:06.948Z,552
2019-01-03T11:37:47.539Z,508
2019-01-03T11:38:28.206Z,512
2019-01-03T11:39:08.560Z,488
2019-01-03T11:39:49.013Z,532
2019-01-03T11:40:29.734Z,520
2019-01-03T11:41:10.030Z,464
2019-01-03T11:41:50.436Z,428
2019-01-03T11:42:33.380Z,452
2019-01-03T11:43:13.422Z,464
2019-01-03T11:43:53.817Z,456
2019-01-03T11:44:35.150Z,504
2019-01-03T11:45:15.669Z,540
2019-01-03T11:45:56.137Z,568
2019-01-03T11:46:40.161Z,564
2019-01-03T11:47:20.550Z,504
2019-01-03T11:48:01.968Z,508
2019-01-03T11:48:42.560Z,552
2019-01-03T11:49:25.039Z,524
2019-01-03T11:50:11.975Z,616
2019-01-03T11:50:53.431Z,588
2019-01-03T11:51:34.672Z,504
2019-01-03T11:52:17.570Z,480
2019-01-03T11:52:59.837Z,436
2019-01-03T11:53:47.845Z,384
2019-01-03T11:54:28.319Z,420
2019-01-03T11:55:08.738Z,452
2019-01-03T11:55:49.136Z,416
2019-01-03T11:56:29.524Z,348
2019-01-03T11:57:09.999Z,348
2019-01-03T11:57:50.456Z,376
2019-01-03T11:58:32.013Z,420
2019-01-03T11:59:12.375Z,464
2019-01-03T11:59:52.793Z,484
2019-01-03T12:00:35.270Z,440
2019-01-03T12:01:16.362Z,372
2019-01-03T12:01:56.278Z,356
2019-01-03T12:02:38.962Z,348
2019-01-03T12:03:21.526Z,368
2019-01-03T12:04:02.073Z,364
2019-01-03T12:04:42.437Z,352
2019-01-03T12:05:22.887Z,412
2019-01-03T12:06:03.267Z,408
2019-01-03T12:06:44.041Z,404
2019-01-03T12:07:26.277Z,404
2019-01-03T12:08:06.668Z,392
2019-01-03T12:08:48.880Z,372
2019-01-03T12:09:30.486Z,332
2019-01-03T12:10:10.826Z,348
2019-01-03T12:10:51.295Z,372
2019-01-03T12:11:31.945Z,396
2019-01-03T12:12:14.392Z,396
2019-01-03T12:12:55.434Z,340
2019-01-03T12:13:38.813Z,312
2019-01-03T12:14:19.196Z,288
2019-01-03T12:15:05.611Z,244
2019-01-03T12:15:46.120Z,220
2019-01-03T12:16:30.495Z,220
2019-01-03T12:17:11.444Z,216
2019-01-03T12:17:52.450Z,208
2019-01-03T12:18:32.932Z,204
2019-01-03T12:19:13.441Z,208
2019-01-03T12:19:53.846Z,208
2019-01-03T12:20:34.532Z,224
2019-01-03T12:21:14.961Z,216
2019-01-03T12:22:02.292Z,192
2019-01-03T12:22:46.488Z,184
2019-01-03T12:23:28.578Z,208
2019-01-03T12:24:09.861Z,200
2019-01-03T12:24:55.381Z,196
2019-01-03T12:25:40.289Z,188
2019-01-03T12:28:20.310Z,180
2019-01-03T12:29:17.253Z,204
2019-01-03T12:30:16.453Z,240
2019-01-03T12:31:11.022Z,248
2019-01-03T12:32:04.535Z,284
2019-01-03T12:33:08.050Z,300
2019-01-03T12:34:07.743Z,276
2019-01-03T12:35:00.431Z,236
2019-01-03T12:35:55.065Z,232
2019-01-03T12:36:50.811Z,224
2019-01-03T12:37:45.836Z,220
2019-01-03T12:38:45.670Z,220
2019-01-03T12:39:44.972Z,248
2019-01-03T12:40:47.538Z,272
2019-01-03T12:43:20.793Z,264
2019-01-03T12:47:29.829Z,428
2019-01-03T12:48:09.713Z,480
2019-01-03T12:48:50.133Z,500
2019-01-03T12:49:30.528Z,508
2019-01-03T12:50:13.413Z,488
2019-01-03T12:50:54.026Z,456
2019-01-03T12:51:34.418Z,436
2019-01-03T12:52:14.957Z,428
2019-01-03T12:52:55.314Z,412
2019-01-03T12:53:37.323Z,420
2019-01-03T12:54:24.826Z,412
2019-01-03T12:55:05.240Z,376
2019-01-03T12:55:46.719Z,360
2019-01-03T12:56:27.195Z,364
2019-01-03T12:57:07.625Z,356
2019-01-03T12:57:47.966Z,340
2019-01-03T12:58:28.393Z,320
2019-01-03T12:59:08.737Z,304
2019-01-03T12:59:51.228Z,296
2019-01-03T13:00:32.821Z,300
2019-01-03T13:02:35.429Z,260
2019-01-03T13:03:15.738Z,212
2019-01-03T13:03:56.842Z,172
2019-01-03T13:04:37.246Z,148
2019-01-03T13:06:49.512Z,256
2019-01-03T13:07:51.104Z,304